createdAt,value
2019-01-31T00:01:38.520Z,99885.72
2019-01-31T00:04:27.892Z,99880.32
2019-01-31T00:07:06.320Z,99886.41
2019-01-31T00:10:00.336Z,99887.77
2019-01-31T00:13:02.951Z,99894.00
2019-01-31T00:15:38.920Z,99897.89
2019-01-31T00:18:24.732Z,99895.37
2019-01-31T00:21:00.581Z,99902.81
2019-01-31T00:24:00.526Z,99899.25
2019-01-31T00:26:40.147Z,99899.42
2019-01-31T00:29:30.929Z,99899.25
2019-01-31T00:32:07.566Z,99897.06
2019-01-31T00:34:48.595Z,99900.77
2019-01-31T00:37:45.304Z,99901.81
2019-01-31T00:40:33.534Z,99909.58
2019-01-31T00:43:15.218Z,99918.03
2019-01-31T00:46:06.406Z,99921.39
2019-01-31T00:48:41.868Z,99920.20
2019-01-31T00:51:20.117Z,99926.45
2019-01-31T00:54:10.818Z,99927.80
2019-01-31T00:56:52.498Z,99927.97
2019-01-31T00:59:32.774Z,99927.80
2019-01-31T01:02:21.063Z,99926.45
2019-01-31T01:05:17.614Z,99922.09
2019-01-31T01:07:54.714Z,99919.39
2019-01-31T01:10:49.035Z,99928.67
2019-01-31T01:13:25.670Z,99943.36
2019-01-31T01:16:04.192Z,99953.16
2019-01-31T01:18:41.881Z,99950.95
2019-01-31T01:21:31.550Z,99957.22
2019-01-31T01:24:10.896Z,99964.46
2019-01-31T01:27:01.668Z,99960.92
2019-01-31T01:29:36.674Z,99964.98
2019-01-31T01:32:33.971Z,99965.67
2019-01-31T01:35:23.146Z,99955.87
2019-01-31T01:38:14.935Z,99966.33
2019-01-31T01:41:09.279Z,99961.63
2019-01-31T01:43:54.919Z,99957.57
2019-01-31T01:46:48.601Z,99964.81
2019-01-31T01:49:30.181Z,99970.04
2019-01-31T01:52:23.916Z,99978.66
2019-01-31T01:55:14.888Z,99980.70
2019-01-31T01:58:14.335Z,99981.20
2019-01-31T02:00:52.795Z,99984.77
2019-01-31T02:03:43.380Z,99994.39
2019-01-31T02:06:49.697Z,99993.66
2019-01-31T02:09:39.803Z,99998.23
2019-01-31T02:12:24.615Z,100003.81
2019-01-31T02:15:27.331Z,100001.62
2019-01-31T02:18:05.770Z,100006.55
2019-01-31T02:21:02.752Z,100012.26
2019-01-31T02:23:56.935Z,100007.38
2019-01-31T02:26:38.992Z,100021.40
2019-01-31T02:29:32.700Z,100032.52
2019-01-31T02:32:26.605Z,100044.19
2019-01-31T02:35:17.047Z,100045.70
2019-01-31T02:38:07.512Z,100054.47
2019-01-31T02:40:54.285Z,100058.14
2019-01-31T02:43:48.438Z,100056.97
2019-01-31T02:46:33.936Z,100059.67
2019-01-31T02:49:24.880Z,100056.96
2019-01-31T02:52:09.562Z,100052.25
2019-01-31T02:55:06.725Z,100051.73
2019-01-31T02:58:01.794Z,100059.00
2019-01-31T03:00:52.465Z,100051.73
2019-01-31T03:03:41.560Z,100046.84
2019-01-31T03:06:41.531Z,100043.14
2019-01-31T03:09:26.667Z,100054.13
2019-01-31T03:12:02.168Z,100061.53
2019-01-31T03:14:39.212Z,100076.38
2019-01-31T03:17:28.440Z,100078.73
2019-01-31T03:20:03.780Z,100085.32
2019-01-31T03:22:53.435Z,100086.72
2019-01-31T03:25:46.804Z,100084.53
2019-01-31T03:28:40.645Z,100088.72
2019-01-31T03:31:29.866Z,100085.67
2019-01-31T03:34:14.615Z,100089.72
2019-01-31T03:36:53.195Z,100079.44
2019-01-31T03:39:35.063Z,100081.44
2019-01-31T03:42:24.581Z,100089.23
2019-01-31T03:45:00.584Z,100092.41
2019-01-31T03:48:06.466Z,100094.30
2019-01-31T03:51:10.067Z,100100.69
2019-01-31T03:53:48.448Z,100094.63
2019-01-31T03:56:31.167Z,100101.86
2019-01-31T03:59:15.075Z,100104.39
2019-01-31T04:01:54.569Z,100097.98
2019-01-31T04:08:20.486Z,100093.92
2019-01-31T04:10:53.118Z,100094.44
2019-01-31T04:13:25.420Z,100093.09
2019-01-31T04:15:57.541Z,100095.44
2019-01-31T04:18:29.772Z,100100.49
2019-01-31T04:21:09.128Z,100107.25
2019-01-31T04:23:44.278Z,100110.98
2019-01-31T04:26:16.422Z,100113.68
2019-01-31T04:28:48.834Z,100111.30
2019-01-31T04:31:20.999Z,100114.69
2019-01-31T04:33:53.251Z,100118.39
2019-01-31T04:36:25.412Z,100121.11
2019-01-31T04:38:58.630Z,100123.45
2019-01-31T04:41:31.258Z,100116.88
2019-01-31T04:44:03.563Z,100115.53
2019-01-31T04:46:35.828Z,100120.92
2019-01-31T04:49:08.358Z,100123.97
2019-01-31T04:51:40.409Z,100111.48
2019-01-31T04:54:12.736Z,100115.19
2019-01-31T04:56:45.257Z,100109.64
2019-01-31T04:59:17.446Z,100109.11
2019-01-31T05:01:49.752Z,100099.83
2019-01-31T05:04:22.196Z,100096.30
2019-01-31T05:06:54.436Z,100097.15
2019-01-31T05:09:27.829Z,100102.02
2019-01-31T05:12:00.395Z,100112.51
2019-01-31T05:14:32.832Z,100110.98
2019-01-31T05:17:05.227Z,100102.02
2019-01-31T05:19:37.739Z,100106.76
2019-01-31T05:22:10.124Z,100098.83
2019-01-31T05:24:42.312Z,100088.20
2019-01-31T05:27:14.849Z,100085.18
2019-01-31T05:29:47.054Z,100085.02
2019-01-31T05:32:19.521Z,100085.67
2019-01-31T05:34:51.684Z,100090.90
2019-01-31T05:37:24.059Z,100088.72
2019-01-31T05:39:59.423Z,100089.54
2019-01-31T05:42:33.287Z,100088.86
2019-01-31T05:45:08.453Z,100090.72
2019-01-31T05:47:41.770Z,100092.23
2019-01-31T05:50:17.769Z,100084.31
2019-01-31T05:52:50.226Z,100087.84
2019-01-31T05:55:22.485Z,100080.42
2019-01-31T05:57:55.415Z,100092.58
2019-01-31T06:00:35.438Z,100092.23
2019-01-31T06:03:07.544Z,100078.57
2019-01-31T06:05:40.886Z,100074.36
2019-01-31T06:08:13.256Z,100067.10
2019-01-31T06:10:45.311Z,100052.25
2019-01-31T06:13:17.591Z,100062.39
2019-01-31T06:15:49.702Z,100059.52
2019-01-31T06:18:21.793Z,100055.78
2019-01-31T06:20:54.100Z,100053.42
2019-01-31T06:23:26.365Z,100045.15
2019-01-31T06:25:58.517Z,100040.09
2019-01-31T06:28:30.679Z,100035.03
2019-01-31T06:31:02.910Z,100042.30
2019-01-31T06:33:35.021Z,100031.64
2019-01-31T06:36:07.316Z,100022.70
2019-01-31T06:38:39.587Z,100012.42
2019-01-31T06:41:18.328Z,100001.62
2019-01-31T06:43:45.892Z,99997.05
2019-01-31T06:46:19.400Z,99999.75
2019-01-31T06:48:51.625Z,99998.58
2019-01-31T06:51:23.884Z,99995.70
2019-01-31T06:53:56.033Z,99995.19
2019-01-31T06:56:28.164Z,99995.70
2019-01-31T06:59:00.370Z,99978.50
2019-01-31T07:01:32.558Z,99970.05
2019-01-31T07:04:04.682Z,99939.34
2019-01-31T07:06:36.845Z,99938.30
2019-01-31T07:09:11.598Z,99929.89
2019-01-31T07:11:43.735Z,99936.29
2019-01-31T07:14:16.289Z,99936.64
2019-01-31T07:16:48.473Z,99934.29
2019-01-31T07:19:20.866Z,99940.52
2019-01-31T07:21:53.079Z,99928.55
2019-01-31T07:24:25.470Z,99925.50
2019-01-31T07:34:07.478Z,99909.98
2019-01-31T07:36:39.992Z,99900.02
2019-01-31T07:39:12.092Z,99899.15
2019-01-31T07:41:44.214Z,99900.52
2019-01-31T07:44:16.469Z,99890.70
2019-01-31T07:46:48.607Z,99885.98
2019-01-31T07:49:20.854Z,99879.76
2019-01-31T07:51:53.160Z,99869.31
2019-01-31T07:54:25.457Z,99846.36
2019-01-31T07:56:57.657Z,99829.47
2019-01-31T07:59:29.825Z,99830.64
2019-01-31T08:02:02.149Z,99835.03
2019-01-31T08:04:34.399Z,99832.16
2019-01-31T08:07:06.679Z,99824.22
2019-01-31T08:09:38.895Z,99832.84
2019-01-31T08:12:11.088Z,99830.81
2019-01-31T08:14:43.182Z,99819.66
2019-01-31T08:17:15.463Z,99816.13
2019-01-31T08:19:47.545Z,99802.63
2019-01-31T08:22:19.753Z,99809.36
2019-01-31T08:24:51.900Z,99817.11
2019-01-31T08:27:24.365Z,99815.59
2019-01-31T08:29:56.430Z,99815.95
2019-01-31T08:32:28.759Z,99820.34
2019-01-31T08:35:02.085Z,99820.16
2019-01-31T08:37:35.357Z,99794.16
2019-01-31T08:40:07.852Z,99786.70
2019-01-31T08:42:40.160Z,99781.17
2019-01-31T08:45:12.797Z,99784.88
2019-01-31T08:47:46.181Z,99785.71
2019-01-31T08:50:19.677Z,99779.31
2019-01-31T08:52:52.868Z,99773.20
2019-01-31T08:55:25.171Z,99761.41
2019-01-31T08:57:57.386Z,99760.91
2019-01-31T09:00:30.425Z,99759.74
2019-01-31T09:03:02.584Z,99762.45
2019-01-31T09:05:35.026Z,99751.12
2019-01-31T09:08:07.229Z,99735.75
2019-01-31T09:10:40.147Z,99722.75
2019-01-31T09:13:13.083Z,99730.84
2019-01-31T09:15:45.264Z,99725.45
2019-01-31T09:18:17.421Z,99725.79
2019-01-31T09:20:51.469Z,99708.75
2019-01-31T09:23:40.709Z,99711.80
2019-01-31T09:26:43.536Z,99729.78
2019-01-31T09:29:30.892Z,99732.28
2019-01-31T09:32:20.540Z,99716.98
2019-01-31T09:35:11.176Z,99706.84
2019-01-31T09:38:20.437Z,99710.06
2019-01-31T09:41:09.274Z,99702.55
2019-01-31T09:44:00.247Z,99710.78
2019-01-31T09:46:36.418Z,99719.77
2019-01-31T09:49:45.412Z,99726.91
2019-01-31T09:52:37.054Z,99717.63
2019-01-31T09:55:42.877Z,99725.73
2019-01-31T09:58:42.069Z,99708.69
2019-01-31T10:01:25.491Z,99713.09
2019-01-31T10:04:02.669Z,99717.63
2019-01-31T10:06:52.092Z,99721.19
2019-01-31T10:09:39.223Z,99723.55
2019-01-31T10:12:25.473Z,99726.25
2019-01-31T10:15:22.030Z,99725.06
2019-01-31T10:18:01.854Z,99724.72
2019-01-31T10:20:52.468Z,99720.15
2019-01-31T10:23:29.601Z,99710.69
2019-01-31T10:26:08.428Z,99714.25
2019-01-31T10:29:05.140Z,99720.98
2019-01-31T10:31:41.059Z,99711.66
2019-01-31T10:34:16.623Z,99706.20
2019-01-31T10:37:10.233Z,99709.66
2019-01-31T10:39:54.875Z,99715.06
2019-01-31T10:42:50.486Z,99707.62
2019-01-31T10:45:41.685Z,99708.12
2019-01-31T10:48:19.202Z,99711.55
2019-01-31T10:50:58.515Z,99705.29
2019-01-31T10:53:47.478Z,99710.69
2019-01-31T10:56:44.232Z,99714.44
2019-01-31T10:59:33.849Z,99713.73
2019-01-31T11:02:34.542Z,99721.31
2019-01-31T11:05:33.153Z,99729.94
2019-01-31T11:08:14.092Z,99713.21
2019-01-31T11:11:01.236Z,99710.02
2019-01-31T11:13:51.900Z,99714.08
2019-01-31T11:16:36.994Z,99711.68
2019-01-31T11:19:19.003Z,99714.91
2019-01-31T11:22:24.976Z,99709.69
2019-01-31T11:39:43.732Z,99702.56
2019-01-31T11:42:34.353Z,99705.61
2019-01-31T11:45:37.121Z,99696.16
2019-01-31T11:48:22.061Z,99701.03
2019-01-31T11:51:21.855Z,99701.89
2019-01-31T11:53:59.016Z,99690.56
2019-01-31T11:56:48.320Z,99688.70
2019-01-31T11:59:20.542Z,99685.99
2019-01-31T12:01:52.865Z,99678.75
2019-01-31T12:04:25.011Z,99680.93
2019-01-31T12:06:58.288Z,99688.02
2019-01-31T12:09:30.322Z,99690.20
2019-01-31T12:12:02.661Z,99697.81
2019-01-31T12:14:34.927Z,99696.47
2019-01-31T12:17:07.311Z,99697.30
2019-01-31T12:19:39.497Z,99702.18
2019-01-31T12:22:12.043Z,99710.63
2019-01-31T12:24:44.457Z,99711.63
2019-01-31T12:27:16.972Z,99710.97
2019-01-31T12:29:49.086Z,99710.63
2019-01-31T12:32:21.540Z,99711.45
2019-01-31T12:34:53.717Z,99717.72
2019-01-31T12:37:27.194Z,99722.94
2019-01-31T12:40:06.449Z,99728.69
2019-01-31T12:42:38.844Z,99736.09
2019-01-31T12:45:13.439Z,99732.69
2019-01-31T12:47:45.756Z,99733.39
2019-01-31T12:50:19.215Z,99736.61
2019-01-31T12:52:51.509Z,99730.16
2019-01-31T12:55:23.646Z,99740.79
2019-01-31T12:57:55.812Z,99745.70
2019-01-31T13:00:29.078Z,99742.48
2019-01-31T13:03:01.267Z,99743.83
2019-01-31T13:05:35.003Z,99752.28
2019-01-31T13:08:07.147Z,99753.62
2019-01-31T13:10:39.339Z,99753.11
2019-01-31T13:13:11.847Z,99757.16
2019-01-31T13:15:44.182Z,99758.81
2019-01-31T13:18:16.471Z,99759.66
2019-01-31T13:20:48.701Z,99764.60
2019-01-31T13:23:20.969Z,99767.41
2019-01-31T13:25:53.580Z,99764.23
2019-01-31T13:28:25.719Z,99769.30
2019-01-31T13:30:57.934Z,99767.30
2019-01-31T13:33:30.171Z,99771.02
2019-01-31T13:36:02.543Z,99769.14
2019-01-31T13:38:34.762Z,99767.14
2019-01-31T13:41:07.052Z,99771.66
2019-01-31T13:43:39.403Z,99774.87
2019-01-31T13:46:11.778Z,99777.37
2019-01-31T13:48:44.153Z,99779.73
2019-01-31T13:51:16.209Z,99783.30
2019-01-31T13:53:48.339Z,99782.09
2019-01-31T13:56:20.544Z,99785.14
2019-01-31T13:58:52.691Z,99782.25
2019-01-31T14:01:24.990Z,99787.66
2019-01-31T14:03:58.076Z,99791.53
2019-01-31T14:06:30.409Z,99794.23
2019-01-31T14:09:02.597Z,99796.94
2019-01-31T14:11:36.227Z,99802.16
2019-01-31T14:14:09.403Z,99806.22
2019-01-31T14:16:47.769Z,99799.80
2019-01-31T14:19:15.380Z,99802.02
2019-01-31T14:21:47.621Z,99810.77
2019-01-31T14:24:19.790Z,99815.19
2019-01-31T14:26:51.816Z,99815.48
2019-01-31T14:29:24.146Z,99815.34
2019-01-31T14:31:56.362Z,99818.72
2019-01-31T14:34:29.029Z,99823.79
2019-01-31T14:37:01.167Z,99822.95
2019-01-31T14:39:35.680Z,99824.31
2019-01-31T14:42:07.868Z,99829.38
2019-01-31T14:44:40.263Z,99822.31
2019-01-31T14:47:12.597Z,99825.32
2019-01-31T14:49:44.979Z,99825.32
2019-01-31T14:52:17.133Z,99835.13
2019-01-31T14:54:49.611Z,99844.58
2019-01-31T14:57:21.781Z,99845.59
2019-01-31T14:59:54.005Z,99848.28
2019-01-31T15:02:26.367Z,99852.37
2019-01-31T15:04:58.514Z,99856.13
2019-01-31T15:07:30.785Z,99846.95
2019-01-31T15:10:03.012Z,99859.77
2019-01-31T15:12:35.223Z,99866.33
2019-01-31T15:15:07.840Z,99860.77
2019-01-31T15:17:39.896Z,99868.71
2019-01-31T15:20:14.796Z,99872.95
2019-01-31T15:22:47.027Z,99878.87
2019-01-31T15:25:19.639Z,99877.19
2019-01-31T15:27:51.959Z,99872.61
2019-01-31T15:30:25.500Z,99872.30
2019-01-31T15:32:57.731Z,99874.80
2019-01-31T15:35:30.124Z,99875.97
2019-01-31T15:38:02.276Z,99868.88
2019-01-31T15:40:35.905Z,99873.11
2019-01-31T15:43:08.124Z,99868.71
2019-01-31T15:45:40.461Z,99871.59
2019-01-31T15:48:12.866Z,99875.30
2019-01-31T15:50:45.299Z,99874.22
2019-01-31T15:53:17.529Z,99881.31
2019-01-31T15:55:49.961Z,99880.23
2019-01-31T15:58:22.310Z,99872.29
2019-01-31T16:00:55.585Z,99860.17
2019-01-31T16:03:28.198Z,99864.25
2019-01-31T16:06:00.493Z,99861.23
2019-01-31T16:08:32.773Z,99859.09
2019-01-31T16:11:05.383Z,99869.31
2019-01-31T16:13:38.673Z,99863.70
2019-01-31T16:16:10.895Z,99863.70
2019-01-31T16:18:43.090Z,99864.70
2019-01-31T16:21:16.322Z,99874.08
2019-01-31T16:23:48.610Z,99859.88
2019-01-31T16:26:20.919Z,99863.80
2019-01-31T16:28:53.743Z,99861.78
2019-01-31T16:31:27.194Z,99869.92
2019-01-31T16:33:59.330Z,99871.27
2019-01-31T16:36:34.046Z,99876.98
2019-01-31T16:39:07.462Z,99878.05
2019-01-31T16:41:39.716Z,99878.20
2019-01-31T16:44:12.025Z,99873.22
2019-01-31T16:46:44.489Z,99871.29
2019-01-31T16:49:16.644Z,99874.67
2019-01-31T16:51:48.980Z,99888.67
2019-01-31T16:54:22.113Z,99883.77
2019-01-31T16:56:54.525Z,99885.66
2019-01-31T16:59:26.769Z,99885.58
2019-01-31T17:01:59.095Z,99887.74
2019-01-31T17:04:34.269Z,99894.52
2019-01-31T17:07:05.703Z,99891.52
2019-01-31T17:09:39.423Z,99885.41
2019-01-31T17:12:12.172Z,99881.59
2019-01-31T17:14:44.441Z,99890.59
2019-01-31T17:17:16.979Z,99889.88
2019-01-31T17:19:50.046Z,99885.80
2019-01-31T17:22:22.484Z,99890.51
2019-01-31T17:24:56.501Z,99891.42
2019-01-31T17:27:28.854Z,99889.94
2019-01-31T17:30:01.007Z,99887.68
2019-01-31T17:32:33.753Z,99886.43
2019-01-31T17:35:05.981Z,99884.28
2019-01-31T17:37:38.393Z,99887.92
2019-01-31T17:40:11.969Z,99881.70
2019-01-31T17:42:44.444Z,99884.05
2019-01-31T17:45:17.204Z,99873.28
2019-01-31T17:47:49.746Z,99877.03
2019-01-31T17:50:22.420Z,99878.57
2019-01-31T17:53:02.009Z,99876.91
2019-01-31T17:55:34.096Z,99875.40
2019-01-31T17:58:06.617Z,99874.57
2019-01-31T18:00:43.760Z,99873.25
2019-01-31T18:03:16.274Z,99867.12
2019-01-31T18:05:48.606Z,99868.14
2019-01-31T18:08:20.895Z,99868.82
2019-01-31T18:10:53.041Z,99870.87
2019-01-31T18:13:25.568Z,99865.66
2019-01-31T18:15:58.065Z,99862.61
2019-01-31T18:18:30.482Z,99860.27
2019-01-31T18:21:02.730Z,99858.89
2019-01-31T18:23:35.464Z,99860.73
2019-01-31T18:26:07.649Z,99863.80
2019-01-31T18:28:40.102Z,99860.58
2019-01-31T18:31:12.418Z,99854.34
2019-01-31T18:33:44.790Z,99855.16
2019-01-31T18:36:16.819Z,99858.02
2019-01-31T18:38:51.441Z,99859.75
2019-01-31T18:41:24.110Z,99854.70
2019-01-31T18:43:56.490Z,99858.91
2019-01-31T18:46:29.115Z,99866.02
2019-01-31T18:49:01.489Z,99857.88
2019-01-31T18:51:33.667Z,99857.38
2019-01-31T18:54:06.013Z,99856.05
2019-01-31T18:56:38.178Z,99857.66
2019-01-31T18:59:10.633Z,99857.59
2019-01-31T19:01:43.000Z,99855.59
2019-01-31T19:04:15.730Z,99859.31
2019-01-31T19:06:48.059Z,99852.69
2019-01-31T19:09:20.526Z,99847.73
2019-01-31T19:11:52.690Z,99845.06
2019-01-31T19:14:26.550Z,99847.77
2019-01-31T19:16:59.188Z,99844.69
2019-01-31T19:19:31.619Z,99843.18
2019-01-31T19:22:03.831Z,99855.11
2019-01-31T19:24:36.242Z,99852.32
2019-01-31T19:27:08.482Z,99842.08
2019-01-31T19:29:41.285Z,99840.58
2019-01-31T19:32:13.606Z,99837.02
2019-01-31T19:34:45.917Z,99831.27
2019-01-31T19:37:19.155Z,99836.56
2019-01-31T19:39:51.452Z,99836.10
2019-01-31T19:42:23.769Z,99833.05
2019-01-31T19:44:56.098Z,99834.41
2019-01-31T19:47:28.872Z,99832.69
2019-01-31T19:50:01.418Z,99837.11
2019-01-31T19:52:33.505Z,99833.42
2019-01-31T19:55:05.841Z,99832.07
2019-01-31T19:57:39.005Z,99828.20
2019-01-31T20:00:12.152Z,99828.53
2019-01-31T20:02:44.462Z,99821.46
2019-01-31T20:05:16.765Z,99827.36
2019-01-31T20:07:49.105Z,99821.65
2019-01-31T20:10:22.282Z,99823.48
2019-01-31T20:12:54.674Z,99821.65
2019-01-31T20:15:27.029Z,99812.17
2019-01-31T20:18:00.575Z,99825.52
2019-01-31T20:20:32.568Z,99821.30
2019-01-31T20:23:04.931Z,99821.30
2019-01-31T20:25:37.109Z,99829.05
2019-01-31T20:28:09.636Z,99824.16
2019-01-31T20:30:41.738Z,99814.36
2019-01-31T20:33:14.062Z,99818.59
2019-01-31T20:35:46.378Z,99813.34
2019-01-31T20:38:18.745Z,99810.95
2019-01-31T20:40:51.838Z,99808.77
2019-01-31T20:43:24.197Z,99806.77
2019-01-31T20:45:57.617Z,99807.25
2019-01-31T20:48:30.352Z,99805.59
2019-01-31T20:51:02.705Z,99807.13
2019-01-31T20:53:35.083Z,99805.63
2019-01-31T20:56:07.440Z,99807.13
2019-01-31T20:58:40.231Z,99802.39
2019-01-31T21:01:12.531Z,99799.35
2019-01-31T21:03:44.904Z,99804.45
2019-01-31T21:06:17.068Z,99798.53
2019-01-31T21:08:49.447Z,99792.28
2019-01-31T21:11:24.095Z,99791.95
2019-01-31T21:13:56.380Z,99793.82
2019-01-31T21:16:28.574Z,99800.00
2019-01-31T21:19:00.802Z,99791.98
2019-01-31T21:21:32.950Z,99797.33
2019-01-31T21:24:05.408Z,99789.24
2019-01-31T21:26:37.627Z,99784.16
2019-01-31T21:29:10.308Z,99785.19
2019-01-31T21:31:42.515Z,99784.50
2019-01-31T21:34:14.964Z,99785.67
2019-01-31T21:36:47.086Z,99787.86
2019-01-31T21:39:19.400Z,99790.75
2019-01-31T21:41:51.755Z,99789.24
2019-01-31T21:44:25.053Z,99785.95
2019-01-31T21:47:03.158Z,99786.14
2019-01-31T21:49:31.515Z,99789.55
2019-01-31T21:52:03.565Z,99787.18
2019-01-31T21:54:36.038Z,99790.23
2019-01-31T21:57:08.195Z,99788.20
2019-01-31T21:59:43.698Z,99780.11
2019-01-31T22:02:16.021Z,99790.25
2019-01-31T22:04:48.529Z,99795.66
2019-01-31T22:07:20.985Z,99795.84
2019-01-31T22:09:53.553Z,99791.61
2019-01-31T22:12:25.908Z,99795.02
2019-01-31T22:14:59.743Z,99802.45
2019-01-31T22:17:31.995Z,99801.44
2019-01-31T22:20:04.207Z,99806.85
2019-01-31T22:22:36.578Z,99808.73
2019-01-31T22:25:09.231Z,99810.08
2019-01-31T22:27:41.806Z,99813.27
2019-01-31T22:30:15.784Z,99810.27
2019-01-31T22:32:48.418Z,99810.91
2019-01-31T22:35:20.594Z,99812.26
2019-01-31T22:37:53.150Z,99807.86
2019-01-31T22:40:25.621Z,99814.81
2019-01-31T22:42:58.099Z,99827.84
2019-01-31T22:45:30.392Z,99822.73
2019-01-31T22:48:02.842Z,99826.98
2019-01-31T22:50:36.141Z,99820.92
2019-01-31T22:53:08.555Z,99819.05
2019-01-31T22:55:40.608Z,99821.41
2019-01-31T22:58:12.943Z,99822.77
2019-01-31T23:01:07.169Z,99826.52
2019-01-31T23:03:40.322Z,99821.10
2019-01-31T23:06:13.952Z,99820.06
2019-01-31T23:08:46.153Z,99826.52
2019-01-31T23:11:18.441Z,99832.11
2019-01-31T23:13:51.133Z,99829.70
2019-01-31T23:16:23.446Z,99835.12
2019-01-31T23:18:55.705Z,99835.98
2019-01-31T23:21:27.974Z,99827.00
2019-01-31T23:24:00.211Z,99827.86
2019-01-31T23:26:32.363Z,99826.70
2019-01-31T23:29:04.687Z,99827.70
2019-01-31T23:31:36.747Z,99824.33
2019-01-31T23:34:09.024Z,99822.97
2019-01-31T23:36:41.310Z,99830.25
2019-01-31T23:39:13.844Z,99834.13
2019-01-31T23:41:46.020Z,99838.37
2019-01-31T23:44:18.299Z,99837.38
2019-01-31T23:46:50.556Z,99848.84
2019-01-31T23:49:22.746Z,99855.95
2019-01-31T23:51:54.920Z,99851.55
2019-01-31T23:54:27.163Z,99855.60
2019-01-31T23:57:00.291Z,99857.81
2019-01-31T23:59:32.515Z,99859.50
